createdAt,value
2018-07-20T00:01:35.130Z,9.93
2018-07-20T00:04:04.416Z,12.80
2018-07-20T00:06:33.564Z,11.07
2018-07-20T00:09:02.732Z,11.80
2018-07-20T00:11:31.863Z,13.93
2018-07-20T00:14:01.033Z,11.13
2018-07-20T00:16:30.221Z,10.90
2018-07-20T00:18:59.626Z,10.83
2018-07-20T00:21:28.793Z,12.60
2018-07-20T00:23:57.857Z,9.53
2018-07-20T00:26:26.896Z,11.30
2018-07-20T00:28:56.212Z,10.37
2018-07-20T00:31:25.313Z,13.10
2018-07-20T00:33:54.690Z,12.00
2018-07-20T00:36:23.854Z,9.00
2018-07-20T00:38:53.213Z,10.97
2018-07-20T00:41:23.006Z,11.87
2018-07-20T00:43:52.057Z,10.20
2018-07-20T00:46:21.157Z,9.83
2018-07-20T00:48:50.176Z,11.10
2018-07-20T00:51:19.305Z,10.50
2018-07-20T00:53:48.409Z,13.77
2018-07-20T00:56:17.560Z,11.23
2018-07-20T00:58:47.233Z,11.90
2018-07-20T01:01:16.357Z,11.40
2018-07-20T01:03:45.454Z,12.10
2018-07-20T01:06:14.583Z,9.13
2018-07-20T01:08:43.675Z,10.80
2018-07-20T01:11:12.777Z,8.50
2018-07-20T01:13:41.852Z,12.03
2018-07-20T01:16:10.917Z,13.47
2018-07-20T01:18:40.009Z,12.80
2018-07-20T01:21:09.135Z,9.97
2018-07-20T01:23:38.160Z,10.30
2018-07-20T01:26:07.218Z,14.30
2018-07-20T01:28:36.266Z,12.20
2018-07-20T01:31:05.418Z,11.30
2018-07-20T01:33:34.489Z,9.73
2018-07-20T01:36:03.947Z,11.10
2018-07-20T01:38:33.368Z,9.70
2018-07-20T01:41:02.424Z,9.93
2018-07-20T01:43:31.525Z,11.83
2018-07-20T01:46:00.580Z,13.27
2018-07-20T01:48:29.684Z,11.30
2018-07-20T01:50:58.823Z,11.87
2018-07-20T01:53:28.171Z,14.43
2018-07-20T01:55:57.528Z,10.13
2018-07-20T01:58:26.612Z,10.40
2018-07-20T02:00:55.636Z,10.43
2018-07-20T02:03:24.705Z,9.90
2018-07-20T02:05:53.716Z,11.57
2018-07-20T02:08:22.759Z,10.00
2018-07-20T02:10:58.938Z,12.97
2018-07-20T02:13:28.167Z,9.97
2018-07-20T02:15:57.984Z,9.87
2018-07-20T02:18:27.085Z,10.77
2018-07-20T02:20:56.133Z,10.57
2018-07-20T02:23:25.251Z,9.50
2018-07-20T02:25:54.701Z,11.03
2018-07-20T02:28:23.745Z,11.43
2018-07-20T02:30:52.844Z,11.83
2018-07-20T02:33:21.809Z,10.97
2018-07-20T02:35:50.902Z,10.80
2018-07-20T02:38:19.983Z,10.17
2018-07-20T02:40:49.109Z,11.60
2018-07-20T02:43:18.191Z,10.37
2018-07-20T02:45:47.213Z,10.37
2018-07-20T02:48:16.293Z,10.00
2018-07-20T02:50:45.485Z,11.40
2018-07-20T02:53:15.263Z,9.93
2018-07-20T02:55:44.302Z,10.43
2018-07-20T02:58:13.348Z,13.70
2018-07-20T03:00:42.396Z,13.50
2018-07-20T03:03:11.454Z,10.47
2018-07-20T03:05:40.515Z,11.20
2018-07-20T03:08:09.741Z,10.60
2018-07-20T03:10:38.802Z,11.20
2018-07-20T03:13:08.219Z,10.37
2018-07-20T03:15:37.321Z,12.03
2018-07-20T03:18:07.106Z,11.20
2018-07-20T03:20:36.251Z,10.47
2018-07-20T03:23:05.258Z,11.13
2018-07-20T03:25:34.343Z,11.83
2018-07-20T03:28:03.470Z,11.70
2018-07-20T03:30:32.511Z,12.13
2018-07-20T03:33:01.535Z,14.50
2018-07-20T03:35:30.646Z,11.83
2018-07-20T03:37:59.754Z,11.90
2018-07-20T03:40:28.837Z,12.27
2018-07-20T03:42:57.843Z,11.07
2018-07-20T03:45:27.054Z,15.50
2018-07-20T03:47:56.231Z,11.20
2018-07-20T03:50:25.305Z,11.20
2018-07-20T03:52:54.360Z,12.20
2018-07-20T03:55:23.445Z,11.40
2018-07-20T03:57:52.844Z,13.27
2018-07-20T04:00:21.912Z,12.27
2018-07-20T04:02:50.956Z,13.70
2018-07-20T04:05:20.193Z,15.50
2018-07-20T04:07:49.255Z,22.33
2018-07-20T04:10:18.568Z,11.50
2018-07-20T04:12:47.628Z,10.97
2018-07-20T04:15:16.646Z,14.03
2018-07-20T04:17:46.261Z,13.30
2018-07-20T04:20:16.549Z,13.47
2018-07-20T04:22:45.745Z,14.03
2018-07-20T04:25:14.768Z,11.20
2018-07-20T04:27:43.789Z,11.20
2018-07-20T04:30:13.852Z,12.53
2018-07-20T04:32:42.973Z,12.40
2018-07-20T04:35:12.235Z,10.67
2018-07-20T04:37:41.242Z,11.00
2018-07-20T04:40:10.416Z,11.93
2018-07-20T04:42:39.483Z,12.93
2018-07-20T04:45:08.643Z,13.67
2018-07-20T04:47:42.188Z,13.53
2018-07-20T04:50:39.012Z,13.27
2018-07-20T04:53:39.973Z,14.30
2018-07-20T04:56:43.376Z,12.27
2018-07-20T05:13:54.198Z,11.67
2018-07-20T05:16:58.548Z,14.70
2018-07-20T05:19:31.705Z,11.90
2018-07-20T05:22:00.662Z,15.70
2018-07-20T05:24:29.652Z,10.70
2018-07-20T05:26:59.093Z,12.83
2018-07-20T05:29:31.180Z,10.60
2018-07-20T05:32:05.358Z,14.00
2018-07-20T05:34:36.873Z,17.10
2018-07-20T05:37:07.833Z,14.13
2018-07-20T05:39:39.991Z,11.53
2018-07-20T05:42:11.701Z,10.70
2018-07-20T05:44:42.304Z,11.87
2018-07-20T05:47:13.824Z,16.17
2018-07-20T05:49:43.294Z,10.40
2018-07-20T05:52:13.142Z,11.80
2018-07-20T05:54:42.993Z,10.30
2018-07-20T05:57:12.749Z,13.20
2018-07-20T05:59:43.135Z,15.20
2018-07-20T06:02:13.320Z,17.77
2018-07-20T06:04:43.685Z,10.13
2018-07-20T06:07:14.286Z,12.77
2018-07-20T06:09:44.360Z,9.80
2018-07-20T06:12:14.261Z,11.83
2018-07-20T06:14:44.111Z,7.93
2018-07-20T06:17:13.902Z,11.20
2018-07-20T06:19:43.225Z,10.67
2018-07-20T06:22:12.195Z,11.67
2018-07-20T06:24:41.285Z,13.77
2018-07-20T06:27:10.595Z,7.93
2018-07-20T06:29:41.163Z,7.77
2018-07-20T06:32:10.934Z,8.53
2018-07-20T06:34:40.591Z,8.73
2018-07-20T06:37:09.624Z,8.07
2018-07-20T06:39:39.379Z,7.33
2018-07-20T06:42:08.316Z,13.00
2018-07-20T06:44:37.289Z,10.03
2018-07-20T06:47:08.923Z,9.70
2018-07-20T06:49:38.865Z,7.47
2018-07-20T06:52:32.099Z,8.40
2018-07-20T06:55:01.839Z,7.10
2018-07-20T06:57:31.810Z,8.07
2018-07-20T07:00:01.201Z,9.63
2018-07-20T07:02:31.160Z,8.40
2018-07-20T07:05:00.520Z,6.40
2018-07-20T07:07:29.756Z,7.90
2018-07-20T07:09:58.904Z,9.40
2018-07-20T07:12:27.986Z,5.90
2018-07-20T07:14:57.696Z,9.30
2018-07-20T07:17:27.455Z,9.23
2018-07-20T07:19:57.044Z,11.43
2018-07-20T07:22:26.762Z,10.87
2018-07-20T07:24:56.369Z,9.43
2018-07-20T07:27:26.466Z,12.03
2018-07-20T07:29:55.444Z,14.93
2018-07-20T07:32:26.005Z,10.70
2018-07-20T07:34:57.502Z,13.67
2018-07-20T07:37:27.359Z,7.73
2018-07-20T07:39:57.941Z,7.77
2018-07-20T07:42:29.109Z,8.03
2018-07-20T07:44:59.758Z,8.83
2018-07-20T07:47:29.526Z,5.63
2018-07-20T07:49:58.675Z,10.43
2018-07-20T07:52:27.892Z,5.90
2018-07-20T07:54:56.970Z,21.33
2018-07-20T07:57:26.093Z,13.60
2018-07-20T07:59:55.140Z,14.53
2018-07-20T08:02:24.230Z,12.23
2018-07-20T08:04:53.249Z,9.87
2018-07-20T08:07:22.301Z,9.63
2018-07-20T08:09:51.431Z,10.10
2018-07-20T08:12:20.598Z,8.97
2018-07-20T08:14:49.620Z,7.33
2018-07-20T08:17:19.700Z,7.10
2018-07-20T08:19:49.652Z,9.23
2018-07-20T08:22:18.796Z,6.13
2018-07-20T08:24:47.945Z,5.53
2018-07-20T08:27:16.976Z,5.40
2018-07-20T08:29:46.053Z,5.37
2018-07-20T08:32:15.516Z,8.23
2018-07-20T08:34:44.610Z,8.90
2018-07-20T08:37:13.638Z,7.07
2018-07-20T08:39:42.750Z,5.23
2018-07-20T08:42:12.037Z,5.00
2018-07-20T08:44:42.722Z,4.80
2018-07-20T08:47:11.750Z,9.03
2018-07-20T08:49:40.820Z,4.47
2018-07-20T08:52:09.845Z,5.97
2018-07-20T08:54:38.863Z,5.20
2018-07-20T08:57:08.285Z,5.53
2018-07-20T08:59:37.680Z,5.07
2018-07-20T09:02:06.709Z,4.40
2018-07-20T09:04:35.960Z,7.23
2018-07-20T09:07:05.040Z,5.50
2018-07-20T09:09:34.099Z,4.73
2018-07-20T09:12:03.300Z,6.47
2018-07-20T09:14:32.393Z,4.63
2018-07-20T09:17:01.473Z,5.77
2018-07-20T09:19:30.493Z,4.63
2018-07-20T09:21:59.587Z,6.40
2018-07-20T09:24:28.666Z,5.90
2018-07-20T09:26:57.701Z,4.63
2018-07-20T09:29:26.780Z,8.23
2018-07-20T09:31:55.852Z,5.17
2018-07-20T09:34:24.907Z,4.60
2018-07-20T09:36:53.969Z,4.30
2018-07-20T09:39:23.072Z,4.40
2018-07-20T09:41:52.211Z,4.83
2018-07-20T09:44:21.346Z,7.53
2018-07-20T09:46:51.812Z,4.30
2018-07-20T09:49:20.995Z,8.77
2018-07-20T09:51:50.113Z,7.80
2018-07-20T09:54:19.164Z,6.93
2018-07-20T09:56:48.186Z,9.90
2018-07-20T09:59:17.250Z,5.27
2018-07-20T10:01:46.373Z,4.87
2018-07-20T10:04:15.457Z,5.93
2018-07-20T10:06:44.549Z,5.70
2018-07-20T10:09:13.804Z,5.33
2018-07-20T10:11:42.981Z,4.80
2018-07-20T10:14:11.989Z,4.90
2018-07-20T10:16:41.173Z,6.30
2018-07-20T10:19:10.274Z,5.57
2018-07-20T10:21:39.302Z,5.27
2018-07-20T10:24:08.381Z,4.20
2018-07-20T10:26:37.461Z,5.30
2018-07-20T10:29:06.540Z,5.33
2018-07-20T10:31:35.639Z,5.80
2018-07-20T10:34:04.704Z,7.23
2018-07-20T10:36:33.747Z,7.23
2018-07-20T10:39:03.020Z,4.60
2018-07-20T10:41:32.061Z,11.13
2018-07-20T10:44:01.522Z,5.83
2018-07-20T10:46:30.540Z,4.77
2018-07-20T10:49:00.124Z,4.43
2018-07-20T10:51:29.173Z,11.57
2018-07-20T10:53:58.220Z,5.30
2018-07-20T10:56:27.360Z,8.03
2018-07-20T10:58:56.496Z,5.33
2018-07-20T11:01:25.664Z,6.33
2018-07-20T11:03:54.736Z,4.43
2018-07-20T11:06:24.903Z,4.40
2018-07-20T11:08:54.057Z,5.17
2018-07-20T11:11:23.125Z,4.43
2018-07-20T11:13:52.924Z,5.03
2018-07-20T11:16:22.041Z,5.70
2018-07-20T11:18:51.131Z,5.77
2018-07-20T11:21:20.113Z,4.40
2018-07-20T11:23:49.187Z,6.23
2018-07-20T11:26:24.346Z,8.80
2018-07-20T11:28:53.422Z,10.10
2018-07-20T11:31:22.428Z,10.80
2018-07-20T11:33:51.612Z,7.97
2018-07-20T11:36:20.625Z,6.53
2018-07-20T11:38:49.729Z,10.03
2018-07-20T11:41:19.045Z,5.63
2018-07-20T11:43:48.205Z,11.80
2018-07-20T11:46:18.348Z,7.03
2018-07-20T11:48:47.627Z,5.50
2018-07-20T11:51:18.093Z,7.60
2018-07-20T11:53:47.522Z,8.00
2018-07-20T11:56:16.848Z,4.23
2018-07-20T11:58:46.023Z,7.57
2018-07-20T12:01:15.215Z,5.43
2018-07-20T12:03:44.365Z,8.37
2018-07-20T12:06:13.805Z,7.63
2018-07-20T12:08:42.921Z,10.00
2018-07-20T12:11:12.029Z,5.20
2018-07-20T12:13:41.151Z,5.00
2018-07-20T12:16:10.228Z,4.63
2018-07-20T12:18:40.232Z,4.60
2018-07-20T12:21:09.299Z,4.93
2018-07-20T12:23:38.373Z,5.23
2018-07-20T12:26:07.482Z,4.20
2018-07-20T12:28:36.531Z,6.80
2018-07-20T12:31:05.826Z,8.00
2018-07-20T12:33:34.924Z,4.10
2018-07-20T12:36:04.120Z,4.97
2018-07-20T12:38:33.117Z,5.60
2018-07-20T12:41:02.231Z,4.47
2018-07-20T12:43:31.204Z,5.17
2018-07-20T12:46:00.262Z,5.33
2018-07-20T12:48:29.410Z,4.77
2018-07-20T12:50:58.465Z,4.70
2018-07-20T12:53:27.514Z,5.47
2018-07-20T12:55:56.585Z,5.90
2018-07-20T12:58:25.782Z,7.83
2018-07-20T13:00:54.833Z,8.90
2018-07-20T13:03:23.975Z,5.43
2018-07-20T13:05:53.588Z,5.13
2018-07-20T13:08:22.825Z,4.97
2018-07-20T13:10:51.920Z,5.80
2018-07-20T13:13:21.056Z,5.83
2018-07-20T13:15:50.124Z,6.40
2018-07-20T13:18:19.209Z,5.70
2018-07-20T13:20:48.340Z,8.07
2018-07-20T13:23:17.440Z,5.57
2018-07-20T13:25:46.864Z,5.17
2018-07-20T13:28:15.933Z,4.33
2018-07-20T13:30:45.752Z,11.97
2018-07-20T13:33:14.928Z,6.90
2018-07-20T13:35:44.432Z,6.17
2018-07-20T13:38:13.742Z,7.40
2018-07-20T13:40:42.780Z,9.77
2018-07-20T13:43:11.820Z,8.67
2018-07-20T13:45:44.661Z,5.43
2018-07-20T13:48:13.734Z,4.70
2018-07-20T13:50:42.787Z,4.50
2018-07-20T13:53:12.072Z,11.03
2018-07-20T13:55:41.352Z,4.63
2018-07-20T13:58:10.463Z,6.00
2018-07-20T14:00:39.469Z,9.90
2018-07-20T14:03:08.722Z,7.23
2018-07-20T14:05:37.809Z,9.60
2018-07-20T14:08:06.968Z,5.00
2018-07-20T14:10:36.164Z,5.03
2018-07-20T14:13:05.409Z,5.33
2018-07-20T14:15:34.508Z,8.57
2018-07-20T14:18:03.810Z,4.90
2018-07-20T14:20:33.429Z,5.30
2018-07-20T14:23:02.649Z,5.80
2018-07-20T14:25:31.787Z,4.57
2018-07-20T14:28:00.841Z,6.57
2018-07-20T14:30:29.860Z,6.40
2018-07-20T14:32:59.012Z,6.10
2018-07-20T14:35:28.081Z,6.63
2018-07-20T14:37:57.155Z,7.10
2018-07-20T14:40:26.288Z,5.57
2018-07-20T14:42:55.374Z,15.60
2018-07-20T14:45:24.560Z,5.60
2018-07-20T14:47:53.749Z,5.23
2018-07-20T14:50:23.852Z,5.57
2018-07-20T14:53:03.157Z,6.23
2018-07-20T14:55:32.196Z,9.30
2018-07-20T14:58:01.282Z,8.10
2018-07-20T15:00:30.358Z,9.73
2018-07-20T15:02:59.543Z,4.70
2018-07-20T15:05:28.578Z,5.20
2018-07-20T15:07:57.631Z,5.83
2018-07-20T15:10:26.741Z,5.00
2018-07-20T15:12:55.755Z,9.40
2018-07-20T15:15:25.718Z,7.87
2018-07-20T15:17:54.852Z,8.13
2018-07-20T15:20:23.968Z,8.40
2018-07-20T15:22:53.584Z,4.90
2018-07-20T15:25:22.731Z,5.63
2018-07-20T15:27:52.081Z,5.93
2018-07-20T15:30:21.628Z,5.13
2018-07-20T15:32:50.740Z,5.33
2018-07-20T15:35:19.826Z,5.83
2018-07-20T15:37:48.998Z,9.17
2018-07-20T15:40:18.139Z,4.93
2018-07-20T15:42:47.193Z,4.97
2018-07-20T15:45:16.298Z,5.13
2018-07-20T15:47:45.502Z,5.60
2018-07-20T15:50:14.564Z,5.50
2018-07-20T15:53:36.266Z,7.93
2018-07-20T15:55:12.885Z,7.40
2018-07-20T15:57:42.048Z,6.13
2018-07-20T16:00:11.180Z,5.00
2018-07-20T16:02:40.208Z,7.67
2018-07-20T16:05:09.371Z,5.37
2018-07-20T16:07:38.519Z,8.80
2018-07-20T16:10:07.771Z,7.23
2018-07-20T16:12:36.820Z,5.30
2018-07-20T16:15:06.334Z,4.93
2018-07-20T16:17:35.454Z,5.80
2018-07-20T16:20:04.597Z,5.20
2018-07-20T16:22:33.683Z,7.13
2018-07-20T16:25:02.704Z,5.07
2018-07-20T16:27:31.800Z,5.33
2018-07-20T16:30:00.933Z,8.93
2018-07-20T16:32:30.180Z,4.70
2018-07-20T16:34:59.725Z,5.27
2018-07-20T16:37:30.133Z,6.23
2018-07-20T16:40:00.923Z,5.77
2018-07-20T16:42:30.452Z,11.57
2018-07-20T16:44:59.929Z,8.30
2018-07-20T16:47:29.277Z,6.93
2018-07-20T16:49:58.483Z,12.93
2018-07-20T16:52:27.597Z,7.87
2018-07-20T16:54:56.686Z,6.53
2018-07-20T16:57:25.896Z,5.50
2018-07-20T16:59:55.928Z,6.93
2018-07-20T17:02:26.022Z,5.73
2018-07-20T17:04:55.111Z,9.07
2018-07-20T17:07:24.264Z,6.63
2018-07-20T17:09:53.392Z,16.47
2018-07-20T17:12:22.552Z,4.90
2018-07-20T17:14:51.569Z,5.10
2018-07-20T17:17:20.733Z,5.40
2018-07-20T17:19:50.190Z,11.20
2018-07-20T17:22:19.365Z,5.43
2018-07-20T17:24:48.435Z,5.43
2018-07-20T17:27:17.453Z,7.80
2018-07-20T17:29:46.559Z,6.30
2018-07-20T17:32:16.064Z,9.27
2018-07-20T17:34:45.076Z,5.40
2018-07-20T17:37:14.562Z,4.97
2018-07-20T17:39:43.872Z,7.73
2018-07-20T17:42:12.901Z,5.90
2018-07-20T17:44:42.166Z,5.20
2018-07-20T17:47:11.353Z,5.30
2018-07-20T17:49:40.434Z,6.33
2018-07-20T17:52:09.524Z,4.87
2018-07-20T17:54:38.568Z,5.17
2018-07-20T17:57:07.793Z,4.80
2018-07-20T17:59:36.836Z,7.53
2018-07-20T18:02:06.143Z,5.50
2018-07-20T18:04:35.252Z,8.40
2018-07-20T18:07:06.293Z,8.57
2018-07-20T18:09:36.455Z,8.80
2018-07-20T18:12:05.549Z,5.60
2018-07-20T18:14:34.764Z,12.33
2018-07-20T18:17:04.145Z,7.00
2018-07-20T18:19:37.918Z,5.80
2018-07-20T18:22:10.204Z,4.73
2018-07-20T18:24:39.521Z,5.53
2018-07-20T18:27:08.773Z,12.00
2018-07-20T18:29:37.791Z,15.27
2018-07-20T18:32:09.936Z,10.17
2018-07-20T18:34:38.990Z,7.57
2018-07-20T18:37:08.768Z,8.03
2018-07-20T18:39:37.743Z,8.67
2018-07-20T18:42:06.913Z,5.37
2018-07-20T18:44:36.037Z,8.13
2018-07-20T18:47:05.191Z,6.50
2018-07-20T18:49:34.304Z,10.70
2018-07-20T18:52:04.265Z,5.87
2018-07-20T18:54:33.414Z,6.97
2018-07-20T18:57:02.494Z,6.13
2018-07-20T18:59:31.733Z,7.67
2018-07-20T19:02:00.909Z,7.37
2018-07-20T19:04:29.992Z,6.83
2018-07-20T19:06:59.077Z,6.53
2018-07-20T19:09:28.262Z,21.00
2018-07-20T19:11:57.413Z,11.70
2018-07-20T19:14:26.641Z,10.90
2018-07-20T19:16:55.959Z,13.13
2018-07-20T19:19:25.009Z,8.33
2018-07-20T19:21:54.144Z,6.90
2018-07-20T19:24:23.211Z,7.30
2018-07-20T19:26:52.736Z,6.90
2018-07-20T19:29:21.897Z,7.67
2018-07-20T19:31:50.916Z,11.43
2018-07-20T19:34:20.008Z,7.00
2018-07-20T19:36:49.595Z,9.00
2018-07-20T19:39:18.613Z,12.63
2018-07-20T19:41:47.601Z,8.20
2018-07-20T19:44:16.704Z,7.50
2018-07-20T19:46:45.845Z,8.00
2018-07-20T19:49:14.972Z,8.73
2018-07-20T19:51:45.474Z,8.93
2018-07-20T19:54:14.610Z,8.53
2018-07-20T19:56:43.643Z,7.80
2018-07-20T19:59:12.777Z,9.83
2018-07-20T20:01:41.854Z,8.00
2018-07-20T20:04:10.897Z,9.20
2018-07-20T20:06:39.957Z,8.43
2018-07-20T20:09:10.989Z,7.90
2018-07-20T20:11:40.722Z,9.87
2018-07-20T20:14:10.214Z,15.13
2018-07-20T20:16:44.877Z,8.63
2018-07-20T20:19:14.533Z,9.83
2018-07-20T20:21:45.073Z,9.30
2018-07-20T20:24:15.511Z,7.13
2018-07-20T20:26:45.058Z,12.23
2018-07-20T20:29:14.695Z,21.90
2018-07-20T20:31:44.273Z,19.10
2018-07-20T20:34:13.874Z,23.57
2018-07-20T20:36:44.495Z,16.87
2018-07-20T20:39:14.659Z,15.67
2018-07-20T20:41:44.026Z,23.13
2018-07-20T20:44:13.604Z,14.00
2018-07-20T20:46:42.829Z,21.40
2018-07-20T20:49:12.533Z,20.53
2018-07-20T20:51:42.141Z,20.83
2018-07-20T20:54:11.707Z,24.00
2018-07-20T20:56:41.152Z,22.70
2018-07-20T20:59:10.923Z,16.27
2018-07-20T21:01:40.401Z,18.13
2018-07-20T21:04:10.210Z,16.53
2018-07-20T21:06:40.533Z,21.13
2018-07-20T21:09:10.647Z,21.30
2018-07-20T21:11:40.120Z,25.00
2018-07-20T21:14:09.619Z,21.90
2018-07-20T21:16:38.947Z,26.17
2018-07-20T21:19:08.428Z,23.90
2018-07-20T21:21:38.497Z,21.30
2018-07-20T21:24:08.492Z,22.00
2018-07-20T21:26:37.581Z,24.90
2018-07-20T21:29:06.717Z,30.30
2018-07-20T21:31:36.172Z,32.63
2018-07-20T21:34:05.203Z,29.67
2018-07-20T21:36:34.283Z,39.93
2018-07-20T21:39:03.582Z,37.20
2018-07-20T21:41:32.655Z,34.37
2018-07-20T21:44:01.752Z,39.97
2018-07-20T21:46:30.856Z,44.13
2018-07-20T21:48:59.916Z,34.90
2018-07-20T21:51:28.945Z,28.53
2018-07-20T21:53:58.182Z,26.90
2018-07-20T21:56:27.245Z,30.53
2018-07-20T21:58:56.303Z,36.90
2018-07-20T22:01:25.395Z,34.50
2018-07-20T22:03:54.475Z,34.63
2018-07-20T22:06:23.593Z,32.43
2018-07-20T22:08:52.832Z,31.83
2018-07-20T22:11:21.897Z,25.43
2018-07-20T22:13:51.053Z,24.63
2018-07-20T22:16:20.261Z,22.80
2018-07-20T22:18:49.411Z,24.63
2018-07-20T22:21:18.520Z,21.93
2018-07-20T22:23:47.672Z,21.93
2018-07-20T22:26:16.759Z,23.77
2018-07-20T22:28:46.034Z,24.73
2018-07-20T22:31:15.221Z,27.30
2018-07-20T22:33:44.634Z,23.80
2018-07-20T22:36:13.687Z,19.77
2018-07-20T22:38:42.836Z,22.10
2018-07-20T22:41:12.011Z,19.83
2018-07-20T22:43:41.625Z,19.73
2018-07-20T22:46:10.916Z,23.43
2018-07-20T22:48:40.030Z,22.27
2018-07-20T22:51:09.566Z,24.20
2018-07-20T22:53:38.820Z,21.20
2018-07-20T22:56:09.385Z,20.07
2018-07-20T22:58:38.937Z,26.97
2018-07-20T23:01:08.060Z,22.97
2018-07-20T23:03:37.446Z,26.50
2018-07-20T23:06:06.748Z,24.83
2018-07-20T23:08:35.849Z,21.40
2018-07-20T23:11:05.396Z,20.53
2018-07-20T23:13:34.444Z,23.40
2018-07-20T23:16:03.537Z,26.50
2018-07-20T23:18:32.645Z,22.83
2018-07-20T23:21:01.741Z,20.40
2018-07-20T23:23:30.856Z,17.13
2018-07-20T23:25:59.990Z,16.83
2018-07-20T23:28:29.049Z,15.40
2018-07-20T23:30:58.182Z,15.90
2018-07-20T23:33:27.375Z,20.70
2018-07-20T23:35:56.440Z,20.23
2018-07-20T23:38:26.713Z,17.50
2018-07-20T23:40:55.897Z,16.10
2018-07-20T23:43:24.962Z,16.07
2018-07-20T23:45:54.152Z,15.33
2018-07-20T23:48:23.248Z,15.57
2018-07-20T23:50:53.100Z,18.23
2018-07-20T23:53:22.167Z,15.83
2018-07-20T23:55:51.479Z,16.03
2018-07-20T23:58:20.510Z,16.63
